sensor_id;sensor_type;location;lat;lon;timestamp;pressure;altitude;pressure_sealevel;temperature
53412;BMP280;39307;52.870;13.660;2022-11-20T00:01:48;100590.47;;;1.37
53412;BMP280;39307;52.870;13.660;2022-11-20T00:04:14;100586.38;;;1.35
53412;BMP280;39307;52.870;13.660;2022-11-20T00:06:40;100587.50;;;1.42
53412;BMP280;39307;52.870;13.660;2022-11-20T00:09:09;100591.16;;;1.39
53412;BMP280;39307;52.870;13.660;2022-11-20T00:11:36;100591.53;;;1.35
53412;BMP280;39307;52.870;13.660;2022-11-20T00:14:02;100598.88;;;1.39
53412;BMP280;39307;52.870;13.660;2022-11-20T00:16:31;100587.69;;;1.49
53412;BMP280;39307;52.870;13.660;2022-11-20T00:18:57;100589.81;;;1.44
53412;BMP280;39307;52.870;13.660;2022-11-20T00:21:25;100592.66;;;1.42
53412;BMP280;39307;52.870;13.660;2022-11-20T00:23:53;100593.06;;;1.37
53412;BMP280;39307;52.870;13.660;2022-11-20T00:26:20;100586.25;;;1.36
53412;BMP280;39307;52.870;13.660;2022-11-20T00:28:56;100587.19;;;1.35
53412;BMP280;39307;52.870;13.660;2022-11-20T00:31:23;100590.09;;;1.42
53412;BMP280;39307;52.870;13.660;2022-11-20T00:33:49;100586.44;;;1.44
53412;BMP280;39307;52.870;13.660;2022-11-20T00:36:23;100588.56;;;1.39
53412;BMP280;39307;52.870;13.660;2022-11-20T00:38:54;100581.94;;;1.37
53412;BMP280;39307;52.870;13.660;2022-11-20T00:41:21;100585.31;;;1.37
53412;BMP280;39307;52.870;13.660;2022-11-20T00:43:48;100589.66;;;1.37
53412;BMP280;39307;52.870;13.660;2022-11-20T00:46:16;100590.75;;;1.34
53412;BMP280;39307;52.870;13.660;2022-11-20T00:48:43;100590.84;;;1.33
53412;BMP280;39307;52.870;13.660;2022-11-20T00:51:12;100592.09;;;1.38
53412;BMP280;39307;52.870;13.660;2022-11-20T00:53:38;100588.50;;;1.50
53412;BMP280;39307;52.870;13.660;2022-11-20T00:56:07;100583.34;;;1.50
53412;BMP280;39307;52.870;13.660;2022-11-20T00:58:38;100592.41;;;1.44
53412;BMP280;39307;52.870;13.660;2022-11-20T01:01:16;100596.06;;;1.42
53412;BMP280;39307;52.870;13.660;2022-11-20T01:03:45;100591.84;;;1.41
53412;BMP280;39307;52.870;13.660;2022-11-20T01:06:14;100586.94;;;1.38
53412;BMP280;39307;52.870;13.660;2022-11-20T01:08:40;100592.81;;;1.40
53412;BMP280;39307;52.870;13.660;2022-11-20T01:11:12;100597.19;;;1.49
53412;BMP280;39307;52.870;13.660;2022-11-20T01:13:39;100594.44;;;1.41
53412;BMP280;39307;52.870;13.660;2022-11-20T01:16:14;100591.41;;;1.36
53412;BMP280;39307;52.870;13.660;2022-11-20T01:18:43;100596.16;;;1.31
53412;BMP280;39307;52.870;13.660;2022-11-20T01:21:14;100588.56;;;1.39
53412;BMP280;39307;52.870;13.660;2022-11-20T01:23:42;100588.31;;;1.42
53412;BMP280;39307;52.870;13.660;2022-11-20T01:26:15;100585.06;;;1.40
53412;BMP280;39307;52.870;13.660;2022-11-20T01:28:42;100590.47;;;1.37
53412;BMP280;39307;52.870;13.660;2022-11-20T01:31:31;100586.94;;;1.38
53412;BMP280;39307;52.870;13.660;2022-11-20T01:34:03;100580.16;;;1.37
53412;BMP280;39307;52.870;13.660;2022-11-20T01:36:31;100570.47;;;1.30
53412;BMP280;39307;52.870;13.660;2022-11-20T01:39:03;100569.41;;;1.32
53412;BMP280;39307;52.870;13.660;2022-11-20T01:41:32;100574.31;;;1.35
53412;BMP280;39307;52.870;13.660;2022-11-20T01:43:59;100571.44;;;1.29
53412;BMP280;39307;52.870;13.660;2022-11-20T01:46:25;100581.59;;;1.30
53412;BMP280;39307;52.870;13.660;2022-11-20T01:48:58;100575.13;;;1.36
53412;BMP280;39307;52.870;13.660;2022-11-20T01:51:33;100580.72;;;1.41
53412;BMP280;39307;52.870;13.660;2022-11-20T01:54:04;100579.22;;;1.38
53412;BMP280;39307;52.870;13.660;2022-11-20T01:56:37;100575.13;;;1.36
53412;BMP280;39307;52.870;13.660;2022-11-20T01:59:05;100576.06;;;1.35
53412;BMP280;39307;52.870;13.660;2022-11-20T02:01:33;100565.88;;;1.33
53412;BMP280;39307;52.870;13.660;2022-11-20T02:04:00;100568.34;;;1.35
53412;BMP280;39307;52.870;13.660;2022-11-20T02:06:52;100565.06;;;1.33
53412;BMP280;39307;52.870;13.660;2022-11-20T02:09:21;100565.63;;;1.36
53412;BMP280;39307;52.870;13.660;2022-11-20T02:11:47;100557.75;;;1.38
53412;BMP280;39307;52.870;13.660;2022-11-20T02:14:14;100561.03;;;1.40
53412;BMP280;39307;52.870;13.660;2022-11-20T02:16:45;100557.88;;;1.36
53412;BMP280;39307;52.870;13.660;2022-11-20T02:19:24;100557.75;;;1.38
53412;BMP280;39307;52.870;13.660;2022-11-20T02:24:28;100558.38;;;1.30
53412;BMP280;39307;52.870;13.660;2022-11-20T02:27:11;100548.34;;;1.27
53412;BMP280;39307;52.870;13.660;2022-11-20T02:30:04;100547.81;;;1.33
53412;BMP280;39307;52.870;13.660;2022-11-20T02:32:34;100545.25;;;1.33
53412;BMP280;39307;52.870;13.660;2022-11-20T02:37:47;100549.22;;;1.37
53412;BMP280;39307;52.870;13.660;2022-11-20T02:40:14;100539.00;;;1.36
53412;BMP280;39307;52.870;13.660;2022-11-20T02:42:41;100546.09;;;1.34
53412;BMP280;39307;52.870;13.660;2022-11-20T02:45:07;100553.56;;;1.37
53412;BMP280;39307;52.870;13.660;2022-11-20T02:47:34;100542.41;;;1.36
53412;BMP280;39307;52.870;13.660;2022-11-20T02:50:00;100550.97;;;1.37
53412;BMP280;39307;52.870;13.660;2022-11-20T02:52:26;100543.88;;;1.29
53412;BMP280;39307;52.870;13.660;2022-11-20T02:54:53;100548.63;;;1.24
53412;BMP280;39307;52.870;13.660;2022-11-20T02:57:19;100550.66;;;1.30
53412;BMP280;39307;52.870;13.660;2022-11-20T02:59:45;100546.19;;;1.32
53412;BMP280;39307;52.870;13.660;2022-11-20T03:02:11;100550.00;;;1.28
53412;BMP280;39307;52.870;13.660;2022-11-20T03:04:37;100545.50;;;1.30
53412;BMP280;39307;52.870;13.660;2022-11-20T03:07:05;100544.16;;;1.36
53412;BMP280;39307;52.870;13.660;2022-11-20T03:09:31;100534.00;;;1.34
53412;BMP280;39307;52.870;13.660;2022-11-20T03:11:57;100538.47;;;1.32
53412;BMP280;39307;52.870;13.660;2022-11-20T03:14:23;100539.81;;;1.36
53412;BMP280;39307;52.870;13.660;2022-11-20T03:16:49;100537.25;;;1.36
53412;BMP280;39307;52.870;13.660;2022-11-20T03:19:15;100537.66;;;1.32
53412;BMP280;39307;52.870;13.660;2022-11-20T03:21:42;100541.84;;;1.33
53412;BMP280;39307;52.870;13.660;2022-11-20T03:24:08;100537.75;;;1.30
53412;BMP280;39307;52.870;13.660;2022-11-20T03:26:34;100539.13;;;1.25
53412;BMP280;39307;52.870;13.660;2022-11-20T03:29:03;100540.88;;;1.24
53412;BMP280;39307;52.870;13.660;2022-11-20T03:31:38;100547.66;;;1.25
53412;BMP280;39307;52.870;13.660;2022-11-20T03:34:05;100538.88;;;1.28
53412;BMP280;39307;52.870;13.660;2022-11-20T03:36:32;100528.28;;;1.31
53412;BMP280;39307;52.870;13.660;2022-11-20T03:38:58;100523.03;;;1.42
53412;BMP280;39307;52.870;13.660;2022-11-20T03:41:27;100526.25;;;1.34
53412;BMP280;39307;52.870;13.660;2022-11-20T03:43:58;100524.06;;;1.30
53412;BMP280;39307;52.870;13.660;2022-11-20T03:46:26;100523.66;;;1.25
53412;BMP280;39307;52.870;13.660;2022-11-20T03:48:53;100521.63;;;1.28
53412;BMP280;39307;52.870;13.660;2022-11-20T03:51:21;100519.97;;;1.27
53412;BMP280;39307;52.870;13.660;2022-11-20T03:53:49;100518.63;;;1.33
53412;BMP280;39307;52.870;13.660;2022-11-20T03:56:17;100517.28;;;1.29
53412;BMP280;39307;52.870;13.660;2022-11-20T03:58:44;100508.47;;;1.31
53412;BMP280;39307;52.870;13.660;2022-11-20T04:01:25;100509.41;;;1.30
53412;BMP280;39307;52.870;13.660;2022-11-20T04:03:52;100514.81;;;1.27
53412;BMP280;39307;52.870;13.660;2022-11-20T04:06:24;100518.50;;;1.25
53412;BMP280;39307;52.870;13.660;2022-11-20T04:08:53;100519.03;;;1.28
53412;BMP280;39307;52.870;13.660;2022-11-20T04:11:23;100517.69;;;1.24
53412;BMP280;39307;52.870;13.660;2022-11-20T04:13:52;100509.09;;;1.24
53412;BMP280;39307;52.870;13.660;2022-11-20T04:16:19;100498.53;;;1.27
53412;BMP280;39307;52.870;13.660;2022-11-20T04:18:45;100514.94;;;1.26
53412;BMP280;39307;52.870;13.660;2022-11-20T04:21:11;100512.63;;;1.23
53412;BMP280;39307;52.870;13.660;2022-11-20T04:23:38;100512.78;;;1.21
53412;BMP280;39307;52.870;13.660;2022-11-20T04:26:04;100512.13;;;1.29
53412;BMP280;39307;52.870;13.660;2022-11-20T04:28:31;100506.13;;;1.19
53412;BMP280;39307;52.870;13.660;2022-11-20T04:31:06;100509.34;;;1.21
53412;BMP280;39307;52.870;13.660;2022-11-20T04:33:33;100500.97;;;1.19
53412;BMP280;39307;52.870;13.660;2022-11-20T04:36:05;100508.53;;;1.20
53412;BMP280;39307;52.870;13.660;2022-11-20T04:38:31;100510.56;;;1.17
53412;BMP280;39307;52.870;13.660;2022-11-20T04:41:01;100508.44;;;1.22
53412;BMP280;39307;52.870;13.660;2022-11-20T04:43:27;100503.28;;;1.22
53412;BMP280;39307;52.870;13.660;2022-11-20T04:45:54;100509.34;;;1.21
53412;BMP280;39307;52.870;13.660;2022-11-20T04:48:21;100509.25;;;1.22
53412;BMP280;39307;52.870;13.660;2022-11-20T04:50:47;100514.50;;;1.21
53412;BMP280;39307;52.870;13.660;2022-11-20T04:53:14;100508.88;;;1.36
53412;BMP280;39307;52.870;13.660;2022-11-20T04:55:40;100513.88;;;1.28
53412;BMP280;39307;52.870;13.660;2022-11-20T04:58:06;100517.94;;;1.21
53412;BMP280;39307;52.870;13.660;2022-11-20T05:00:32;100510.88;;;1.23
53412;BMP280;39307;52.870;13.660;2022-11-20T05:02:59;100510.13;;;1.12
53412;BMP280;39307;52.870;13.660;2022-11-20T05:05:25;100514.25;;;1.24
53412;BMP280;39307;52.870;13.660;2022-11-20T05:07:51;100508.13;;;1.15
53412;BMP280;39307;52.870;13.660;2022-11-20T05:10:17;100506.63;;;1.13
53412;BMP280;39307;52.870;13.660;2022-11-20T05:12:43;100498.09;;;1.13
53412;BMP280;39307;52.870;13.660;2022-11-20T05:15:10;100501.06;;;1.17
53412;BMP280;39307;52.870;13.660;2022-11-20T05:17:36;100503.13;;;1.23
53412;BMP280;39307;52.870;13.660;2022-11-20T05:20:02;100490.66;;;1.19
53412;BMP280;39307;52.870;13.660;2022-11-20T05:22:28;100495.91;;;1.17
53412;BMP280;39307;52.870;13.660;2022-11-20T05:24:54;100496.59;;;1.19
53412;BMP280;39307;52.870;13.660;2022-11-20T05:27:21;100491.06;;;1.24
53412;BMP280;39307;52.870;13.660;2022-11-20T05:29:47;100491.72;;;1.16
53412;BMP280;39307;52.870;13.660;2022-11-20T05:32:13;100493.59;;;1.14
53412;BMP280;39307;52.870;13.660;2022-11-20T05:34:39;100491.19;;;1.22
53412;BMP280;39307;52.870;13.660;2022-11-20T05:37:05;100483.72;;;1.19
53412;BMP280;39307;52.870;13.660;2022-11-20T05:39:31;100484.66;;;1.18
53412;BMP280;39307;52.870;13.660;2022-11-20T05:41:58;100481.13;;;1.19
53412;BMP280;39307;52.870;13.660;2022-11-20T05:44:24;100482.22;;;1.17
53412;BMP280;39307;52.870;13.660;2022-11-20T05:46:50;100481.00;;;1.21
53412;BMP280;39307;52.870;13.660;2022-11-20T05:49:16;100477.06;;;1.17
53412;BMP280;39307;52.870;13.660;2022-11-20T05:51:42;100479.19;;;1.12
53412;BMP280;39307;52.870;13.660;2022-11-20T05:54:08;100485.44;;;1.10
53412;BMP280;39307;52.870;13.660;2022-11-20T05:56:35;100477.31;;;1.14
53412;BMP280;39307;52.870;13.660;2022-11-20T05:59:01;100485.00;;;1.05
53412;BMP280;39307;52.870;13.660;2022-11-20T06:01:27;100477.19;;;1.15
53412;BMP280;39307;52.870;13.660;2022-11-20T06:03:54;100481.09;;;1.10
53412;BMP280;39307;52.870;13.660;2022-11-20T06:06:20;100480.09;;;1.02
53412;BMP280;39307;52.870;13.660;2022-11-20T06:08:47;100480.91;;;1.02
53412;BMP280;39307;52.870;13.660;2022-11-20T06:11:14;100468.59;;;1.06
53412;BMP280;39307;52.870;13.660;2022-11-20T06:13:41;100461.28;;;1.11
53412;BMP280;39307;52.870;13.660;2022-11-20T06:16:09;100465.91;;;1.07
53412;BMP280;39307;52.870;13.660;2022-11-20T06:18:36;100465.91;;;1.07
53412;BMP280;39307;52.870;13.660;2022-11-20T06:21:07;100463.56;;;1.04
53412;BMP280;39307;52.870;13.660;2022-11-20T06:23:34;100468.19;;;1.01
53412;BMP280;39307;52.870;13.660;2022-11-20T06:26:06;100474.69;;;1.05
53412;BMP280;39307;52.870;13.660;2022-11-20T06:28:32;100468.59;;;1.06
53412;BMP280;39307;52.870;13.660;2022-11-20T06:30:59;100468.44;;;0.98
53412;BMP280;39307;52.870;13.660;2022-11-20T06:33:25;100479.75;;;1.06
53412;BMP280;39307;52.870;13.660;2022-11-20T06:35:52;100477.41;;;1.03
53412;BMP280;39307;52.870;13.660;2022-11-20T06:38:18;100477.28;;;1.05
53412;BMP280;39307;52.870;13.660;2022-11-20T06:40:44;100473.19;;;1.02
53412;BMP280;39307;52.870;13.660;2022-11-20T06:43:10;100469.69;;;1.03
53412;BMP280;39307;52.870;13.660;2022-11-20T06:45:37;100479.09;;;0.93
53412;BMP280;39307;52.870;13.660;2022-11-20T06:48:03;100478.69;;;0.88
53412;BMP280;39307;52.870;13.660;2022-11-20T06:50:29;100475.59;;;0.94
53412;BMP280;39307;52.870;13.660;2022-11-20T06:52:56;100475.72;;;0.93
53412;BMP280;39307;52.870;13.660;2022-11-20T06:55:22;100469.78;;;1.02
53412;BMP280;39307;52.870;13.660;2022-11-20T06:57:48;100467.88;;;0.94
53412;BMP280;39307;52.870;13.660;2022-11-20T07:00:16;100471.25;;;0.95
53412;BMP280;39307;52.870;13.660;2022-11-20T07:02:42;100465.72;;;0.99
53412;BMP280;39307;52.870;13.660;2022-11-20T07:05:08;100464.53;;;1.03
53412;BMP280;39307;52.870;13.660;2022-11-20T07:07:34;100464.53;;;1.03
53412;BMP280;39307;52.870;13.660;2022-11-20T07:10:01;100465.72;;;0.99
53412;BMP280;39307;52.870;13.660;2022-11-20T07:12:27;100466.13;;;0.95
53412;BMP280;39307;52.870;13.660;2022-11-20T07:14:53;100476.28;;;0.96
53412;BMP280;39307;52.870;13.660;2022-11-20T07:17:19;100472.38;;;1.02
53412;BMP280;39307;52.870;13.660;2022-11-20T07:19:45;100470.59;;;1.02
53412;BMP280;39307;52.870;13.660;2022-11-20T07:22:11;100472.53;;;1.00
53412;BMP280;39307;52.870;13.660;2022-11-20T07:24:38;100461.06;;;0.93
53412;BMP280;39307;52.870;13.660;2022-11-20T07:27:04;100461.22;;;0.92
53412;BMP280;39307;52.870;13.660;2022-11-20T07:29:31;100462.78;;;0.84
53412;BMP280;39307;52.870;13.660;2022-11-20T07:31:57;100465.56;;;0.91
53412;BMP280;39307;52.870;13.660;2022-11-20T07:34:23;100450.59;;;0.86
53412;BMP280;39307;52.870;13.660;2022-11-20T07:36:49;100457.13;;;0.89
53412;BMP280;39307;52.870;13.660;2022-11-20T07:39:15;100463.78;;;0.92
53412;BMP280;39307;52.870;13.660;2022-11-20T07:41:42;100460.69;;;0.98
53412;BMP280;39307;52.870;13.660;2022-11-20T07:44:08;100461.22;;;0.92
53412;BMP280;39307;52.870;13.660;2022-11-20T07:46:34;100465.97;;;0.96
53412;BMP280;39307;52.870;13.660;2022-11-20T07:49:00;100461.88;;;0.94
53412;BMP280;39307;52.870;13.660;2022-11-20T07:51:27;100456.34;;;0.98
53412;BMP280;39307;52.870;13.660;2022-11-20T07:53:53;100454.47;;;1.00
53412;BMP280;39307;52.870;13.660;2022-11-20T07:56:19;100456.91;;;1.02
53412;BMP280;39307;52.870;13.660;2022-11-20T07:58:45;100460.31;;;1.02
53412;BMP280;39307;52.870;13.660;2022-11-20T08:01:12;100467.50;;;1.08
53412;BMP280;39307;52.870;13.660;2022-11-20T08:03:38;100454.50;;;1.10
53412;BMP280;39307;52.870;13.660;2022-11-20T08:06:04;100454.38;;;1.11
53412;BMP280;39307;52.870;13.660;2022-11-20T08:08:31;100446.00;;;1.18
53412;BMP280;39307;52.870;13.660;2022-11-20T08:10:57;100450.19;;;1.19
53412;BMP280;39307;52.870;13.660;2022-11-20T08:13:23;100444.78;;;1.22
53412;BMP280;39307;52.870;13.660;2022-11-20T08:15:50;100445.41;;;1.15
53412;BMP280;39307;52.870;13.660;2022-11-20T08:18:17;100452.19;;;1.07
53412;BMP280;39307;52.870;13.660;2022-11-20T08:20:43;100449.88;;;1.04
53412;BMP280;39307;52.870;13.660;2022-11-20T08:23:10;100447.19;;;1.14
53412;BMP280;39307;52.870;13.660;2022-11-20T08:25:37;100445.81;;;1.11
53412;BMP280;39307;52.870;13.660;2022-11-20T08:28:05;100444.59;;;1.14
53412;BMP280;39307;52.870;13.660;2022-11-20T08:30:32;100444.34;;;1.17
53412;BMP280;39307;52.870;13.660;2022-11-20T08:33:07;100437.16;;;1.21
53412;BMP280;39307;52.870;13.660;2022-11-20T08:35:34;100438.09;;;1.11
53412;BMP280;39307;52.870;13.660;2022-11-20T08:38:02;100436.50;;;1.19
53412;BMP280;39307;52.870;13.660;2022-11-20T08:40:28;100440.00;;;1.18
53412;BMP280;39307;52.870;13.660;2022-11-20T08:42:54;100437.16;;;1.21
53412;BMP280;39307;52.870;13.660;2022-11-20T08:45:20;100434.22;;;1.25
53412;BMP280;39307;52.870;13.660;2022-11-20T08:47:46;100436.94;;;1.33
53412;BMP280;39307;52.870;13.660;2022-11-20T08:50:14;100433.00;;;1.39
53412;BMP280;39307;52.870;13.660;2022-11-20T08:52:41;100437.78;;;1.34
53412;BMP280;39307;52.870;13.660;2022-11-20T08:55:07;100431.09;;;1.31
53412;BMP280;39307;52.870;13.660;2022-11-20T08:57:34;100439.50;;;1.33
53412;BMP280;39307;52.870;13.660;2022-11-20T09:00:02;100430.41;;;1.29
53412;BMP280;39307;52.870;13.660;2022-11-20T09:02:29;100434.34;;;1.33
53412;BMP280;39307;52.870;13.660;2022-11-20T09:04:55;100431.81;;;1.43
53412;BMP280;39307;52.870;13.660;2022-11-20T09:07:21;100422.31;;;1.43
53412;BMP280;39307;52.870;13.660;2022-11-20T09:09:47;100435.31;;;1.42
53412;BMP280;39307;52.870;13.660;2022-11-20T09:12:14;100438.06;;;1.49
53412;BMP280;39307;52.870;13.660;2022-11-20T09:14:40;100424.38;;;1.49
53412;BMP280;39307;52.870;13.660;2022-11-20T09:17:06;100425.44;;;1.46
53412;BMP280;39307;52.870;13.660;2022-11-20T09:19:32;100429.38;;;1.50
53412;BMP280;39307;52.870;13.660;2022-11-20T09:21:59;100422.06;;;1.46
53412;BMP280;39307;52.870;13.660;2022-11-20T09:24:26;100421.22;;;1.45
53412;BMP280;39307;52.870;13.660;2022-11-20T09:26:53;100427.22;;;1.46
53412;BMP280;39307;52.870;13.660;2022-11-20T09:29:19;100427.34;;;1.54
53412;BMP280;39307;52.870;13.660;2022-11-20T09:31:45;100422.34;;;1.62
53412;BMP280;39307;52.870;13.660;2022-11-20T09:34:11;100422.06;;;1.65
53412;BMP280;39307;52.870;13.660;2022-11-20T09:36:37;100422.34;;;1.62
53412;BMP280;39307;52.870;13.660;2022-11-20T09:39:03;100414.88;;;1.59
53412;BMP280;39307;52.870;13.660;2022-11-20T09:42:01;100420.72;;;1.61
53412;BMP280;39307;52.870;13.660;2022-11-20T09:44:49;100410.66;;;1.58
53412;BMP280;39307;52.870;13.660;2022-11-20T09:47:51;100403.75;;;1.58
53412;BMP280;39307;52.870;13.660;2022-11-20T09:50:47;100401.28;;;1.66
53412;BMP280;39307;52.870;13.660;2022-11-20T09:56:19;100400.47;;;1.56
53412;BMP280;39307;52.870;13.660;2022-11-20T09:58:53;100400.22;;;1.69
53412;BMP280;39307;52.870;13.660;2022-11-20T10:01:26;100409.44;;;1.71
53412;BMP280;39307;52.870;13.660;2022-11-20T10:06:34;100389.88;;;1.78
53412;BMP280;39307;52.870;13.660;2022-11-20T10:09:26;100399.53;;;1.85
53412;BMP280;39307;52.870;13.660;2022-11-20T10:12:15;100393.16;;;1.99
53412;BMP280;39307;52.870;13.660;2022-11-20T10:14:56;100396.53;;;2.08
53412;BMP280;39307;52.870;13.660;2022-11-20T10:22:51;100383.78;;;2.07
53412;BMP280;39307;52.870;13.660;2022-11-20T10:25:26;100380.78;;;2.02
53412;BMP280;39307;52.870;13.660;2022-11-20T10:28:24;100380.78;;;2.02
53412;BMP280;39307;52.870;13.660;2022-11-20T10:31:03;100370.44;;;2.02
53412;BMP280;39307;52.870;13.660;2022-11-20T10:33:41;100371.66;;;2.17
53412;BMP280;39307;52.870;13.660;2022-11-20T10:36:26;100366.50;;;2.07
53412;BMP280;39307;52.870;13.660;2022-11-20T10:39:04;100367.84;;;2.11
53412;BMP280;39307;52.870;13.660;2022-11-20T10:41:38;100362.00;;;2.19
53412;BMP280;39307;52.870;13.660;2022-11-20T10:44:17;100366.63;;;2.25
53412;BMP280;39307;52.870;13.660;2022-11-20T10:46:45;100364.97;;;2.24
53412;BMP280;39307;52.870;13.660;2022-11-20T10:49:15;100358.47;;;2.20
53412;BMP280;39307;52.870;13.660;2022-11-20T10:51:59;100355.88;;;2.20
53412;BMP280;39307;52.870;13.660;2022-11-20T10:55:06;100360.63;;;2.33
53412;BMP280;39307;52.870;13.660;2022-11-20T10:57:59;100373.81;;;2.12
53412;BMP280;39307;52.870;13.660;2022-11-20T11:00:31;100364.75;;;2.08
53412;BMP280;39307;52.870;13.660;2022-11-20T11:02:57;100359.16;;;2.03
53412;BMP280;39307;52.870;13.660;2022-11-20T11:05:42;100366.50;;;2.07
53412;BMP280;39307;52.870;13.660;2022-11-20T11:08:15;100364.34;;;2.12
53412;BMP280;39307;52.870;13.660;2022-11-20T11:13:21;100370.19;;;2.05
53412;BMP280;39307;52.870;13.660;2022-11-20T11:15:48;100363.13;;;2.07
53412;BMP280;39307;52.870;13.660;2022-11-20T11:18:28;100354.28;;;2.00
53412;BMP280;39307;52.870;13.660;2022-11-20T11:20:56;100358.78;;;1.98
53412;BMP280;39307;52.870;13.660;2022-11-20T11:23:36;100354.97;;;2.02
53412;BMP280;39307;52.870;13.660;2022-11-20T11:26:07;100346.25;;;1.94
53412;BMP280;39307;52.870;13.660;2022-11-20T11:29:15;100350.59;;;2.02
53412;BMP280;39307;52.870;13.660;2022-11-20T11:31:43;100344.63;;;2.02
53412;BMP280;39307;52.870;13.660;2022-11-20T11:34:14;100349.00;;;1.92
53412;BMP280;39307;52.870;13.660;2022-11-20T11:36:41;100349.66;;;1.85
53412;BMP280;39307;52.870;13.660;2022-11-20T11:39:20;100345.91;;;1.79
53412;BMP280;39307;52.870;13.660;2022-11-20T11:41:46;100342.50;;;1.79
53412;BMP280;39307;52.870;13.660;2022-11-20T11:44:21;100340.84;;;1.87
53412;BMP280;39307;52.870;13.660;2022-11-20T11:46:54;100342.88;;;1.84
53412;BMP280;39307;52.870;13.660;2022-11-20T11:49:21;100335.41;;;1.90
53412;BMP280;39307;52.870;13.660;2022-11-20T11:54:43;100334.19;;;1.75
53412;BMP280;39307;52.870;13.660;2022-11-20T11:57:42;100340.72;;;1.79
53412;BMP280;39307;52.870;13.660;2022-11-20T12:00:12;100334.88;;;1.68
53412;BMP280;39307;52.870;13.660;2022-11-20T12:11:00;100337.59;;;1.57
53412;BMP280;39307;52.870;13.660;2022-11-20T12:15:59;100330.53;;;1.50
53412;BMP280;39307;52.870;13.660;2022-11-20T12:18:27;100334.47;;;1.54
53412;BMP280;39307;52.870;13.660;2022-11-20T12:23:36;100331.78;;;1.46
53412;BMP280;39307;52.870;13.660;2022-11-20T12:37:53;100322.81;;;1.50
53412;BMP280;39307;52.870;13.660;2022-11-20T12:40:45;100311.25;;;1.54
53412;BMP280;39307;52.870;13.660;2022-11-20T12:43:27;100307.88;;;1.63
53412;BMP280;39307;52.870;13.660;2022-11-20T12:51:30;100306.91;;;1.54
53412;BMP280;39307;52.870;13.660;2022-11-20T12:54:30;100307.59;;;1.56
53412;BMP280;39307;52.870;13.660;2022-11-20T13:05:24;100305.16;;;1.55
53412;BMP280;39307;52.870;13.660;2022-11-20T13:07:54;100303.94;;;1.49
53412;BMP280;39307;52.870;13.660;2022-11-20T13:10:37;100304.06;;;1.57
53412;BMP280;39307;52.870;13.660;2022-11-20T13:13:24;100296.19;;;1.59
53412;BMP280;39307;52.870;13.660;2022-11-20T13:16:14;100302.59;;;1.55
53412;BMP280;39307;52.870;13.660;2022-11-20T13:18:42;100301.75;;;1.54
53412;BMP280;39307;52.870;13.660;2022-11-20T13:21:41;100301.75;;;1.54
53412;BMP280;39307;52.870;13.660;2022-11-20T13:26:47;100298.25;;;1.46
53412;BMP280;39307;52.870;13.660;2022-11-20T13:29:18;100300.13;;;1.44
53412;BMP280;39307;52.870;13.660;2022-11-20T13:31:46;100299.06;;;1.46
53412;BMP280;39307;52.870;13.660;2022-11-20T13:34:34;100295.13;;;1.52
53412;BMP280;39307;52.870;13.660;2022-11-20T13:37:00;100300.28;;;1.52
53412;BMP280;39307;52.870;13.660;2022-11-20T13:39:30;100298.50;;;1.52
53412;BMP280;39307;52.870;13.660;2022-11-20T13:42:20;100295.94;;;1.52
53412;BMP280;39307;52.870;13.660;2022-11-20T13:44:51;100293.34;;;1.52
53412;BMP280;39307;52.870;13.660;2022-11-20T13:47:22;100293.75;;;1.48
53412;BMP280;39307;52.870;13.660;2022-11-20T13:49:51;100296.06;;;1.51
53412;BMP280;39307;52.870;13.660;2022-11-20T13:52:39;100288.03;;;1.54
53412;BMP280;39307;52.870;13.660;2022-11-20T13:55:28;100298.63;;;1.60
53412;BMP280;39307;52.870;13.660;2022-11-20T14:00:32;100290.75;;;1.62
53412;BMP280;39307;52.870;13.660;2022-11-20T14:03:09;100298.22;;;1.65
53412;BMP280;39307;52.870;13.660;2022-11-20T14:05:56;100289.16;;;1.61
53412;BMP280;39307;52.870;13.660;2022-11-20T14:08:32;100291.72;;;1.61
53412;BMP280;39307;52.870;13.660;2022-11-20T14:11:24;100290.34;;;1.57
53412;BMP280;39307;52.870;13.660;2022-11-20T14:14:04;100284.53;;;1.55
53412;BMP280;39307;52.870;13.660;2022-11-20T14:16:34;100281.94;;;1.55
53412;BMP280;39307;52.870;13.660;2022-11-20T14:21:51;100287.66;;;1.49
53412;BMP280;39307;52.870;13.660;2022-11-20T14:24:20;100270.69;;;1.46
53412;BMP280;39307;52.870;13.660;2022-11-20T14:26:47;100281.13;;;1.45
53412;BMP280;39307;52.870;13.660;2022-11-20T14:29:26;100274.75;;;1.40
53412;BMP280;39307;52.870;13.660;2022-11-20T14:31:55;100268.91;;;1.38
53412;BMP280;39307;52.870;13.660;2022-11-20T14:34:25;100271.63;;;1.36
53412;BMP280;39307;52.870;13.660;2022-11-20T14:37:13;100270.94;;;1.43
53412;BMP280;39307;52.870;13.660;2022-11-20T14:39:50;100267.69;;;1.42
53412;BMP280;39307;52.870;13.660;2022-11-20T14:42:22;100263.75;;;1.38
53412;BMP280;39307;52.870;13.660;2022-11-20T14:44:50;100274.34;;;1.44
53412;BMP280;39307;52.870;13.660;2022-11-20T14:47:22;100269.44;;;1.41
53412;BMP280;39307;52.870;13.660;2022-11-20T14:49:50;100272.56;;;1.35
53412;BMP280;39307;52.870;13.660;2022-11-20T14:52:22;100269.47;;;1.32
53412;BMP280;39307;52.870;13.660;2022-11-20T14:54:53;100275.31;;;1.34
53412;BMP280;39307;52.870;13.660;2022-11-20T14:57:25;100264.31;;;1.32
53412;BMP280;39307;52.870;13.660;2022-11-20T15:02:44;100274.34;;;1.25
53412;BMP280;39307;52.870;13.660;2022-11-20T15:05:13;100272.72;;;1.24
53412;BMP280;39307;52.870;13.660;2022-11-20T15:07:42;100268.91;;;1.28
53412;BMP280;39307;52.870;13.660;2022-11-20T15:10:13;100269.47;;;1.32
53412;BMP280;39307;52.870;13.660;2022-11-20T15:12:51;100261.72;;;1.32
53412;BMP280;39307;52.870;13.660;2022-11-20T15:15:29;100255.88;;;1.30
53412;BMP280;39307;52.870;13.660;2022-11-20T15:17:58;100263.75;;;1.28
53412;BMP280;39307;52.870;13.660;2022-11-20T15:20:30;100259.00;;;1.33
53412;BMP280;39307;52.870;13.660;2022-11-20T15:22:56;100260.22;;;1.29
53412;BMP280;39307;52.870;13.660;2022-11-20T15:25:23;100259.25;;;1.30
53412;BMP280;39307;52.870;13.660;2022-11-20T15:27:52;100256.13;;;1.36